createdAt,value
2023-02-12T00:01:53.892Z,98728.00
2023-02-12T00:04:23.090Z,98727.00
2023-02-12T00:06:52.220Z,98733.00
2023-02-12T00:09:21.310Z,98729.00
2023-02-12T00:11:50.441Z,98732.00
2023-02-12T00:14:20.345Z,98733.00
2023-02-12T00:16:49.435Z,98738.00
2023-02-12T00:19:18.569Z,98742.00
2023-02-12T00:21:47.680Z,98746.00
2023-02-12T00:24:16.782Z,98747.00
2023-02-12T00:26:45.990Z,98752.00
2023-02-12T00:29:15.716Z,98755.00
2023-02-12T00:31:44.827Z,98759.00
2023-02-12T00:34:14.132Z,98746.00
2023-02-12T00:36:43.311Z,98752.00
2023-02-12T00:39:13.710Z,98761.00
2023-02-12T00:41:42.921Z,98766.00
2023-02-12T00:44:12.036Z,98760.00
2023-02-12T00:46:41.334Z,98771.00
2023-02-12T00:49:10.429Z,98780.00
2023-02-12T00:51:39.534Z,98772.00
2023-02-12T00:54:08.780Z,98776.00
2023-02-12T00:56:37.945Z,98788.00
2023-02-12T00:59:07.072Z,98794.00
2023-02-12T01:01:37.162Z,98791.00
2023-02-12T01:04:06.523Z,98788.00
2023-02-12T01:06:38.221Z,98796.00
2023-02-12T01:09:07.404Z,98797.00
2023-02-12T01:11:36.660Z,98804.00
2023-02-12T01:14:09.238Z,98811.00
2023-02-12T01:16:38.671Z,98819.00
2023-02-12T01:19:08.148Z,98820.00
2023-02-12T01:21:37.542Z,98815.00
2023-02-12T01:24:07.262Z,98823.00
2023-02-12T01:26:42.178Z,98824.00
2023-02-12T01:29:16.749Z,98826.00
2023-02-12T01:31:45.989Z,98826.00
2023-02-12T01:34:16.085Z,98826.00
2023-02-12T01:36:45.609Z,98839.00
2023-02-12T01:39:16.256Z,98838.00
2023-02-12T01:41:47.147Z,98842.00
2023-02-12T01:44:27.195Z,98841.00
2023-02-12T01:47:05.429Z,98850.00
2023-02-12T01:49:42.917Z,98857.00
2023-02-12T01:52:33.263Z,98859.00
2023-02-12T01:55:08.880Z,98859.00
2023-02-12T01:57:43.660Z,98864.00
2023-02-12T02:00:24.554Z,98863.00
2023-02-12T02:02:58.815Z,98862.00
2023-02-12T02:05:56.867Z,98861.00
2023-02-12T02:08:26.517Z,98861.00
2023-02-12T02:10:55.609Z,98863.00
2023-02-12T02:13:42.974Z,98873.00
2023-02-12T02:16:26.680Z,98869.00
2023-02-12T02:19:23.794Z,98878.00
2023-02-12T02:22:47.472Z,98877.00
2023-02-12T02:25:47.371Z,98878.00
2023-02-12T02:28:48.339Z,98886.00
2023-02-12T02:31:28.523Z,98880.00
2023-02-12T02:34:21.520Z,98891.00
2023-02-12T02:37:21.140Z,98890.00
2023-02-12T02:40:41.485Z,98892.00
2023-02-12T02:43:24.932Z,98892.00
2023-02-12T02:46:09.966Z,98894.00
2023-02-12T02:48:54.879Z,98899.00
2023-02-12T02:51:42.408Z,98897.00
2023-02-12T02:54:31.788Z,98894.00
2023-02-12T02:57:16.588Z,98888.00
2023-02-12T03:00:14.748Z,98889.00
2023-02-12T03:02:52.181Z,98890.00
2023-02-12T03:05:36.686Z,98892.00
2023-02-12T03:08:26.157Z,98890.00
2023-02-12T03:11:16.057Z,98891.00
2023-02-12T03:13:53.465Z,98885.00
2023-02-12T03:16:36.369Z,98887.00
2023-02-12T03:19:21.560Z,98878.00
2023-02-12T03:22:10.457Z,98884.00
2023-02-12T03:24:51.440Z,98878.00
2023-02-12T03:27:40.387Z,98874.00
2023-02-12T03:30:11.965Z,98871.00
2023-02-12T03:33:05.111Z,98878.00
2023-02-12T03:35:44.152Z,98872.00
2023-02-12T03:38:55.032Z,98873.00
2023-02-12T03:41:41.259Z,98872.00
2023-02-12T03:44:29.584Z,98874.00
2023-02-12T03:47:51.744Z,98858.00
2023-02-12T03:51:00.407Z,98868.00
2023-02-12T03:53:32.168Z,98870.00
2023-02-12T03:56:35.148Z,98858.00
2023-02-12T03:59:06.938Z,98859.00
2023-02-12T04:01:38.226Z,98851.00
2023-02-12T04:04:10.869Z,98846.00
2023-02-12T04:06:41.148Z,98840.00
2023-02-12T04:09:13.792Z,98838.00
2023-02-12T04:12:10.532Z,98839.00
2023-02-12T04:15:36.564Z,98833.00
2023-02-12T04:18:39.340Z,98819.00
2023-02-12T04:21:37.441Z,98816.00
2023-02-12T04:24:17.802Z,98812.00
2023-02-12T04:27:26.307Z,98815.00
2023-02-12T04:30:21.224Z,98817.00
2023-02-12T04:33:01.412Z,98804.00
2023-02-12T04:35:39.754Z,98809.00
2023-02-12T04:38:20.411Z,98801.00
2023-02-12T04:40:51.430Z,98796.00
2023-02-12T04:43:34.730Z,98797.00
2023-02-12T04:46:10.637Z,98788.00
2023-02-12T04:48:59.788Z,98783.00
2023-02-12T04:51:29.415Z,98782.00
2023-02-12T04:53:58.482Z,98779.00
2023-02-12T04:56:27.623Z,98778.00
2023-02-12T04:58:58.748Z,98774.00
2023-02-12T05:01:30.305Z,98762.00
2023-02-12T05:04:00.390Z,98757.00
2023-02-12T05:06:31.380Z,98756.00
2023-02-12T05:09:00.485Z,98758.00
2023-02-12T05:11:29.784Z,98751.00
2023-02-12T05:13:59.346Z,98752.00
2023-02-12T05:16:28.594Z,98751.00
2023-02-12T05:18:58.034Z,98739.00
2023-02-12T05:21:27.905Z,98741.00
2023-02-12T05:23:57.021Z,98738.00
2023-02-12T05:26:26.156Z,98732.00
2023-02-12T05:28:55.216Z,98727.00
2023-02-12T05:31:24.732Z,98724.00
2023-02-12T05:33:55.152Z,98713.00
2023-02-12T05:36:26.820Z,98710.00
2023-02-12T05:39:01.256Z,98707.00
2023-02-12T05:41:35.707Z,98705.00
2023-02-12T05:44:07.536Z,98699.00
2023-02-12T05:46:36.733Z,98697.00
2023-02-12T05:49:06.222Z,98693.00
2023-02-12T05:51:35.378Z,98686.00
2023-02-12T05:54:07.659Z,98683.00
2023-02-12T05:56:44.808Z,98675.00
2023-02-12T05:59:21.994Z,98671.00
2023-02-12T06:01:53.829Z,98663.00
2023-02-12T06:04:29.454Z,98657.00
2023-02-12T06:06:59.206Z,98650.00
2023-02-12T06:09:29.100Z,98646.00
2023-02-12T06:11:58.300Z,98641.00
2023-02-12T06:14:28.004Z,98627.00
2023-02-12T06:16:58.259Z,98626.00
2023-02-12T06:19:27.583Z,98628.00
2023-02-12T06:21:56.634Z,98619.00
2023-02-12T06:24:25.747Z,98621.00
2023-02-12T06:26:55.044Z,98610.00
2023-02-12T06:29:24.597Z,98613.00
2023-02-12T06:31:53.879Z,98607.00
2023-02-12T06:34:23.053Z,98600.00
2023-02-12T06:36:52.158Z,98604.00
2023-02-12T06:39:21.275Z,98593.00
2023-02-12T06:41:50.490Z,98589.00
2023-02-12T06:44:19.618Z,98592.00
2023-02-12T06:46:48.905Z,98583.00
2023-02-12T06:49:18.058Z,98590.00
2023-02-12T06:51:47.163Z,98578.00
2023-02-12T06:54:19.060Z,98578.00
2023-02-12T06:56:48.234Z,98575.00
2023-02-12T06:59:19.043Z,98570.00
2023-02-12T07:01:48.328Z,98561.00
2023-02-12T07:04:17.537Z,98569.00
2023-02-12T07:06:46.760Z,98568.00
2023-02-12T07:09:15.950Z,98560.00
2023-02-12T07:11:45.076Z,98563.00
2023-02-12T07:14:18.573Z,98556.00
2023-02-12T07:16:47.800Z,98548.00
2023-02-12T07:19:17.504Z,98557.00
2023-02-12T07:21:46.844Z,98544.00
2023-02-12T07:24:19.170Z,98543.00
2023-02-12T07:26:48.490Z,98534.00
2023-02-12T07:29:18.213Z,98529.00
2023-02-12T07:31:47.505Z,98534.00
2023-02-12T07:34:16.755Z,98522.00
2023-02-12T07:36:45.867Z,98529.00
2023-02-12T07:39:15.255Z,98525.00
2023-02-12T07:41:44.362Z,98520.00
2023-02-12T07:44:14.788Z,98515.00
2023-02-12T07:46:49.874Z,98519.00
2023-02-12T07:49:23.864Z,98508.00
2023-02-12T07:51:53.961Z,98503.00
2023-02-12T07:54:23.058Z,98497.00
2023-02-12T07:56:53.182Z,98487.00
2023-02-12T07:59:22.442Z,98496.00
2023-02-12T08:01:54.422Z,98487.00
2023-02-12T08:04:26.919Z,98486.00
2023-02-12T08:06:59.305Z,98498.00
2023-02-12T08:09:31.902Z,98489.00
2023-02-12T08:12:01.100Z,98485.00
2023-02-12T08:14:30.543Z,98482.00
2023-02-12T08:16:59.659Z,98491.00
2023-02-12T08:19:28.852Z,98487.00
2023-02-12T08:21:59.562Z,98477.00
2023-02-12T08:24:28.754Z,98484.00
2023-02-12T08:26:58.570Z,98478.00
2023-02-12T08:29:31.589Z,98481.00
2023-02-12T08:32:03.853Z,98479.00
2023-02-12T08:34:36.512Z,98480.00
2023-02-12T08:37:08.356Z,98485.00
2023-02-12T08:39:37.604Z,98485.00
2023-02-12T08:42:06.950Z,98491.00
2023-02-12T08:44:36.537Z,98486.00
2023-02-12T08:47:07.689Z,98492.00
2023-02-12T08:49:37.337Z,98487.00
2023-02-12T08:52:06.688Z,98489.00
2023-02-12T08:54:35.946Z,98493.00
2023-02-12T08:57:05.795Z,98484.00
2023-02-12T08:59:35.168Z,98479.00
2023-02-12T09:02:09.574Z,98486.00
2023-02-12T09:04:38.960Z,98489.00
2023-02-12T09:07:10.727Z,98488.00
2023-02-12T09:09:40.165Z,98484.00
2023-02-12T09:12:09.450Z,98479.00
2023-02-12T09:14:38.764Z,98474.00
2023-02-12T09:17:08.089Z,98477.00
2023-02-12T09:19:37.933Z,98480.00
2023-02-12T09:22:07.655Z,98477.00
2023-02-12T09:24:39.808Z,98478.00
2023-02-12T09:27:09.104Z,98480.00
2023-02-12T09:29:38.531Z,98483.00
2023-02-12T09:32:07.898Z,98487.00
2023-02-12T09:34:39.036Z,98486.00
2023-02-12T09:37:08.243Z,98487.00
2023-02-12T09:39:37.612Z,98490.00
2023-02-12T09:43:07.240Z,98484.00
2023-02-12T09:46:02.065Z,98497.00
2023-02-12T09:49:03.375Z,98496.00
2023-02-12T09:51:33.894Z,98497.00
2023-02-12T09:54:38.454Z,98501.00
2023-02-12T09:57:26.466Z,98508.00
2023-02-12T10:00:07.984Z,98504.00
2023-02-12T10:02:42.693Z,98511.00
2023-02-12T10:05:28.095Z,98511.00
2023-02-12T10:08:41.059Z,98513.00
2023-02-12T10:11:38.039Z,98509.00
2023-02-12T10:14:28.835Z,98512.00
2023-02-12T10:17:43.568Z,98514.00
2023-02-12T10:20:24.451Z,98510.00
2023-02-12T10:23:11.486Z,98508.00
2023-02-12T10:26:12.695Z,98516.00
2023-02-12T10:28:44.231Z,98515.00
2023-02-12T10:31:36.333Z,98521.00
2023-02-12T10:34:32.031Z,98519.00
2023-02-12T10:37:11.171Z,98522.00
2023-02-12T10:39:50.089Z,98525.00
2023-02-12T10:42:40.681Z,98529.00
2023-02-12T10:45:22.834Z,98529.00
2023-02-12T10:48:11.384Z,98530.00
2023-02-12T10:50:49.778Z,98531.00
2023-02-12T10:53:49.519Z,98530.00
2023-02-12T10:56:25.607Z,98542.00
2023-02-12T10:59:03.546Z,98542.00
2023-02-12T11:01:43.041Z,98539.00
2023-02-12T11:04:36.074Z,98540.00
2023-02-12T11:07:13.458Z,98544.00
2023-02-12T11:09:48.511Z,98549.00
2023-02-12T11:12:49.358Z,98557.00
2023-02-12T11:15:23.428Z,98555.00
2023-02-12T11:18:05.482Z,98554.00
2023-02-12T11:21:03.461Z,98554.00
2023-02-12T11:23:44.518Z,98557.00
2023-02-12T11:26:22.537Z,98551.00
2023-02-12T11:29:03.344Z,98560.00
2023-02-12T11:31:37.824Z,98549.00
2023-02-12T11:34:23.195Z,98561.00
2023-02-12T11:36:55.617Z,98570.00
2023-02-12T11:39:39.618Z,98566.00
2023-02-12T11:42:26.303Z,98569.00
2023-02-12T11:45:01.056Z,98566.00
2023-02-12T11:47:35.487Z,98575.00
2023-02-12T11:50:34.452Z,98573.00
2023-02-12T11:53:10.790Z,98570.00
2023-02-12T11:55:42.730Z,98575.00
2023-02-12T11:58:23.814Z,98580.00
2023-02-12T12:01:10.750Z,98582.00
2023-02-12T12:04:05.735Z,98591.00
2023-02-12T12:06:51.750Z,98593.00
2023-02-12T12:10:05.688Z,98603.00
2023-02-12T12:12:44.478Z,98602.00
2023-02-12T12:15:55.190Z,98601.00
2023-02-12T12:19:19.259Z,98609.00
2023-02-12T12:22:04.374Z,98609.00
2023-02-12T12:24:46.476Z,98616.00
2023-02-12T12:27:43.466Z,98611.00
2023-02-12T12:30:39.935Z,98619.00
2023-02-12T12:33:34.617Z,98617.00
2023-02-12T12:36:27.296Z,98625.00
2023-02-12T12:39:05.385Z,98629.00
2023-02-12T12:41:55.175Z,98634.00
2023-02-12T12:45:07.099Z,98628.00
2023-02-12T12:48:19.172Z,98638.00
2023-02-12T12:51:14.608Z,98641.00
2023-02-12T12:54:18.804Z,98639.00
2023-02-12T12:57:02.508Z,98640.00
2023-02-12T13:00:23.215Z,98643.00
2023-02-12T13:03:26.376Z,98643.00
2023-02-12T13:06:42.130Z,98647.00
2023-02-12T13:09:45.692Z,98649.00
2023-02-12T13:13:01.918Z,98649.00
2023-02-12T13:15:41.464Z,98653.00
2023-02-12T13:18:22.549Z,98655.00
2023-02-12T13:21:37.515Z,98659.00
2023-02-12T13:24:18.959Z,98665.00
2023-02-12T13:26:58.780Z,98667.00
2023-02-12T13:29:47.771Z,98663.00
2023-02-12T13:32:47.303Z,98667.00
2023-02-12T13:35:30.707Z,98667.00
2023-02-12T13:38:02.080Z,98665.00
2023-02-12T13:40:33.221Z,98669.00
2023-02-12T13:43:39.833Z,98677.00
2023-02-12T13:46:48.300Z,98672.00
2023-02-12T13:49:30.088Z,98674.00
2023-02-12T13:52:31.270Z,98675.00
2023-02-12T13:55:40.701Z,98667.00
2023-02-12T13:58:41.233Z,98667.00
2023-02-12T14:01:15.793Z,98661.00
2023-02-12T14:03:45.803Z,98672.00
2023-02-12T14:06:25.973Z,98667.00
2023-02-12T14:09:12.166Z,98667.00
2023-02-12T14:11:55.227Z,98670.00
2023-02-12T14:14:43.707Z,98673.00
2023-02-12T14:17:31.817Z,98673.00
2023-02-12T14:20:22.427Z,98673.00
2023-02-12T14:22:51.566Z,98679.00
2023-02-12T14:25:26.571Z,98674.00
2023-02-12T14:28:15.217Z,98680.00
2023-02-12T14:30:44.424Z,98678.00
2023-02-12T14:33:26.148Z,98680.00
2023-02-12T14:36:43.741Z,98680.00
2023-02-12T14:39:22.002Z,98685.00
2023-02-12T14:42:11.647Z,98685.00
2023-02-12T14:45:00.777Z,98686.00
2023-02-12T14:47:33.028Z,98684.00
2023-02-12T14:50:23.946Z,98689.00
2023-02-12T14:53:18.002Z,98686.00
2023-02-12T14:55:49.532Z,98685.00
2023-02-12T14:58:25.390Z,98689.00
2023-02-12T15:00:58.939Z,98684.00
2023-02-12T15:03:59.231Z,98688.00
2023-02-12T15:06:49.483Z,98684.00
2023-02-12T15:09:37.507Z,98685.00
2023-02-12T15:12:53.180Z,98684.00
2023-02-12T15:15:55.763Z,98682.00
2023-02-12T15:18:47.629Z,98690.00
2023-02-12T15:21:26.666Z,98683.00
2023-02-12T15:24:22.653Z,98682.00
2023-02-12T15:26:56.572Z,98688.00
2023-02-12T15:29:49.523Z,98684.00
2023-02-12T15:32:28.670Z,98682.00
2023-02-12T15:34:59.112Z,98680.00
2023-02-12T15:37:33.461Z,98677.00
2023-02-12T15:40:09.702Z,98684.00
2023-02-12T15:42:42.618Z,98679.00
2023-02-12T15:45:17.549Z,98685.00
2023-02-12T15:47:58.733Z,98685.00
2023-02-12T15:50:29.475Z,98684.00
2023-02-12T15:52:59.426Z,98679.00
2023-02-12T15:55:34.445Z,98678.00
2023-02-12T15:58:04.376Z,98684.00
2023-02-12T16:00:48.645Z,98673.00
2023-02-12T16:03:42.433Z,98676.00
2023-02-12T16:06:17.808Z,98681.00
2023-02-12T16:09:05.077Z,98682.00
2023-02-12T16:11:36.839Z,98680.00
2023-02-12T16:14:24.097Z,98673.00
2023-02-12T16:16:58.291Z,98678.00
2023-02-12T16:19:30.191Z,98677.00
2023-02-12T16:22:04.166Z,98674.00
2023-02-12T16:24:40.549Z,98675.00
2023-02-12T16:27:35.579Z,98672.00
2023-02-12T16:30:24.721Z,98672.00
2023-02-12T16:32:54.534Z,98667.00
2023-02-12T16:35:35.414Z,98660.00
2023-02-12T16:38:46.030Z,98666.00
2023-02-12T16:42:07.328Z,98669.00
2023-02-12T16:44:36.522Z,98670.00
2023-02-12T16:47:05.999Z,98672.00
2023-02-12T16:49:35.414Z,98663.00
2023-02-12T16:52:39.857Z,98661.00
2023-02-12T16:55:18.629Z,98661.00
2023-02-12T16:57:47.868Z,98658.00
2023-02-12T17:00:19.388Z,98660.00
2023-02-12T17:02:48.602Z,98659.00
2023-02-12T17:05:19.433Z,98654.00
2023-02-12T17:07:48.583Z,98654.00
2023-02-12T17:10:18.962Z,98658.00
2023-02-12T17:12:53.793Z,98665.00
2023-02-12T17:15:35.375Z,98654.00
2023-02-12T17:18:04.628Z,98654.00
2023-02-12T17:20:33.759Z,98655.00
2023-02-12T17:23:02.958Z,98647.00
2023-02-12T17:25:33.178Z,98640.00
2023-02-12T17:28:02.647Z,98642.00
2023-02-12T17:30:33.335Z,98630.00
2023-02-12T17:33:03.409Z,98638.00
2023-02-12T17:35:32.955Z,98634.00
2023-02-12T17:38:02.404Z,98636.00
2023-02-12T17:40:31.782Z,98629.00
2023-02-12T17:43:00.986Z,98627.00
2023-02-12T17:45:30.314Z,98624.00
2023-02-12T17:48:00.146Z,98629.00
2023-02-12T17:50:29.394Z,98627.00
2023-02-12T17:52:58.591Z,98629.00
2023-02-12T17:55:27.756Z,98624.00
2023-02-12T17:57:58.063Z,98620.00
2023-02-12T18:00:27.405Z,98623.00
2023-02-12T18:02:56.584Z,98620.00
2023-02-12T18:05:25.833Z,98615.00
2023-02-12T18:07:55.436Z,98612.00
2023-02-12T18:10:24.634Z,98605.00
2023-02-12T18:12:53.833Z,98607.00
2023-02-12T18:15:23.047Z,98606.00
2023-02-12T18:17:52.273Z,98612.00
2023-02-12T18:20:22.097Z,98604.00
2023-02-12T18:22:51.267Z,98602.00
2023-02-12T18:25:20.628Z,98598.00
2023-02-12T18:27:49.862Z,98598.00
2023-02-12T18:30:19.623Z,98600.00
2023-02-12T18:32:49.467Z,98588.00
2023-02-12T18:35:20.182Z,98590.00
2023-02-12T18:37:49.263Z,98586.00
2023-02-12T18:40:18.537Z,98589.00
2023-02-12T18:42:47.748Z,98586.00
2023-02-12T18:45:16.902Z,98582.00
2023-02-12T18:47:46.176Z,98590.00
2023-02-12T18:50:15.567Z,98581.00
2023-02-12T18:52:44.628Z,98582.00
2023-02-12T18:55:13.823Z,98577.00
2023-02-12T18:57:42.904Z,98577.00
2023-02-12T19:00:12.782Z,98579.00
2023-02-12T19:02:41.908Z,98574.00
2023-02-12T19:05:11.651Z,98578.00
2023-02-12T19:07:40.870Z,98572.00
2023-02-12T19:10:10.713Z,98574.00
2023-02-12T19:12:40.078Z,98575.00
2023-02-12T19:15:09.840Z,98576.00
2023-02-12T19:17:38.951Z,98562.00
2023-02-12T19:20:09.019Z,98571.00
2023-02-12T19:22:39.373Z,98571.00
2023-02-12T19:25:09.150Z,98570.00
2023-02-12T19:27:38.606Z,98566.00
2023-02-12T19:30:09.374Z,98571.00
2023-02-12T19:32:39.354Z,98565.00
2023-02-12T19:35:10.542Z,98560.00
2023-02-12T19:37:39.773Z,98561.00
2023-02-12T19:40:10.084Z,98562.00
2023-02-12T19:42:39.576Z,98563.00
2023-02-12T19:45:09.567Z,98563.00
2023-02-12T19:47:38.838Z,98564.00
2023-02-12T19:50:09.645Z,98566.00
2023-02-12T19:52:39.049Z,98563.00
2023-02-12T19:55:08.538Z,98562.00
2023-02-12T19:57:39.611Z,98562.00
2023-02-12T20:00:10.109Z,98562.00
2023-02-12T20:02:39.393Z,98559.00
2023-02-12T20:05:09.232Z,98559.00
2023-02-12T20:07:38.473Z,98554.00
2023-02-12T20:10:08.623Z,98551.00
2023-02-12T20:12:41.053Z,98554.00
2023-02-12T20:15:10.910Z,98556.00
2023-02-12T20:17:40.175Z,98554.00
2023-02-12T20:20:12.207Z,98555.00
2023-02-12T20:22:41.847Z,98547.00
2023-02-12T20:25:11.399Z,98556.00
2023-02-12T20:27:40.708Z,98548.00
2023-02-12T20:30:10.825Z,98549.00
2023-02-12T20:32:40.131Z,98550.00
2023-02-12T20:35:09.625Z,98545.00
2023-02-12T20:37:39.127Z,98551.00
2023-02-12T20:40:09.493Z,98552.00
2023-02-12T20:42:39.026Z,98547.00
2023-02-12T20:45:09.106Z,98550.00
2023-02-12T20:47:38.283Z,98546.00
2023-02-12T20:50:08.695Z,98541.00
2023-02-12T20:52:38.768Z,98549.00
2023-02-12T20:55:08.418Z,98540.00
2023-02-12T20:57:37.789Z,98542.00
2023-02-12T21:00:08.447Z,98539.00
2023-02-12T21:02:37.703Z,98547.00
2023-02-12T21:05:07.558Z,98542.00
2023-02-12T21:07:37.106Z,98548.00
2023-02-12T21:10:07.064Z,98548.00
2023-02-12T21:12:36.391Z,98552.00
2023-02-12T21:15:06.208Z,98548.00
2023-02-12T21:17:35.808Z,98561.00
2023-02-12T21:20:05.404Z,98556.00
2023-02-12T21:22:34.706Z,98554.00
2023-02-12T21:25:03.932Z,98554.00
2023-02-12T21:27:33.297Z,98541.00
2023-02-12T21:30:02.583Z,98552.00
2023-02-12T21:32:33.306Z,98550.00
2023-02-12T21:35:03.082Z,98551.00
2023-02-12T21:37:32.379Z,98556.00
2023-02-12T21:40:01.603Z,98556.00
2023-02-12T21:42:31.174Z,98561.00
2023-02-12T21:45:03.097Z,98565.00
2023-02-12T21:47:32.360Z,98568.00
2023-02-12T21:50:01.748Z,98566.00
2023-02-12T21:52:30.955Z,98566.00
2023-02-12T21:55:00.219Z,98573.00
2023-02-12T21:57:29.464Z,98576.00
2023-02-12T21:59:58.673Z,98578.00
2023-02-12T22:02:27.983Z,98582.00
2023-02-12T22:04:57.188Z,98578.00
2023-02-12T22:07:26.526Z,98583.00
2023-02-12T22:09:58.364Z,98594.00
2023-02-12T22:12:27.657Z,98585.00
2023-02-12T22:14:56.899Z,98585.00
2023-02-12T22:17:26.189Z,98592.00
2023-02-12T22:19:55.448Z,98591.00
2023-02-12T22:22:24.845Z,98606.00
2023-02-12T22:24:54.221Z,98597.00
2023-02-12T22:27:23.466Z,98606.00
2023-02-12T22:29:53.896Z,98602.00
2023-02-12T22:32:23.264Z,98605.00
2023-02-12T22:34:52.929Z,98604.00
2023-02-12T22:37:22.296Z,98608.00
2023-02-12T22:39:51.395Z,98610.00
2023-02-12T22:42:20.468Z,98609.00
2023-02-12T22:44:49.676Z,98610.00
2023-02-12T22:47:18.836Z,98622.00
2023-02-12T22:49:47.951Z,98630.00
2023-02-12T22:52:17.092Z,98628.00
2023-02-12T22:54:46.692Z,98623.00
2023-02-12T22:57:18.269Z,98640.00
2023-02-12T22:59:49.476Z,98649.00
2023-02-12T23:02:18.627Z,98653.00
2023-02-12T23:04:47.739Z,98656.00
2023-02-12T23:07:16.813Z,98660.00
2023-02-12T23:09:45.908Z,98670.00
2023-02-12T23:12:15.016Z,98669.00
2023-02-12T23:14:44.101Z,98671.00
2023-02-12T23:17:13.289Z,98670.00
2023-02-12T23:19:42.387Z,98672.00
2023-02-12T23:22:11.441Z,98673.00
2023-02-12T23:24:40.587Z,98677.00
2023-02-12T23:27:11.938Z,98672.00
2023-02-12T23:29:41.579Z,98678.00
2023-02-12T23:32:10.656Z,98678.00
2023-02-12T23:34:41.617Z,98682.00
2023-02-12T23:37:11.086Z,98682.00
2023-02-12T23:39:40.296Z,98684.00
2023-02-12T23:42:09.554Z,98686.00
2023-02-12T23:44:39.804Z,98688.00
2023-02-12T23:47:08.943Z,98694.00
2023-02-12T23:49:38.929Z,98694.00
2023-02-12T23:52:08.070Z,98689.00
2023-02-12T23:54:37.316Z,98693.00
2023-02-12T23:57:06.582Z,98690.00
2023-02-12T23:59:35.945Z,98696.00
